Pluckemin, New Jersey
Current Conditions -  °F | °C
As of 1:53 PM on Saturday 20 Dec 2014 (Local Time) from KSMQ Reporting Station
Overcast Overcast  
Wind Chill: 33°   Ceiling: 3000
Heat Index: 33°   Visibility: 10mi
Dew Point: 20°   Wind: 3mph
Humidity: 59%   Direction: 40°NE
Pressure: 30.25"   Gusts: NA
Location:  40.65°N, 74.64°W
Report Text: KSMQ 201853Z AUTO 04003KT 10SM OVC030 01/M07 A3025 RMK AO2 SLP247 T00061067
Loading
Personal Weather Stations






























Interactive Weather Map New forecast layout! Learn more

10-Day Weather Forecast

Advertisements
Track Severe Weather on mobile